sensor_id;sensor_type;location;lat;lon;timestamp;temperature;humidity
39099;DHT22;24844;52.380;7.018;2022-10-16T00:01:23;12.70;99.90
39099;DHT22;24844;52.380;7.018;2022-10-16T00:03:50;12.60;99.90
39099;DHT22;24844;52.380;7.018;2022-10-16T00:06:18;12.40;99.90
39099;DHT22;24844;52.380;7.018;2022-10-16T00:08:44;12.60;99.90
39099;DHT22;24844;52.380;7.018;2022-10-16T00:11:13;12.60;99.90
39099;DHT22;24844;52.380;7.018;2022-10-16T00:13:41;12.70;99.90
39099;DHT22;24844;52.380;7.018;2022-10-16T00:16:07;12.70;99.90
39099;DHT22;24844;52.380;7.018;2022-10-16T00:18:33;12.80;99.90
39099;DHT22;24844;52.380;7.018;2022-10-16T00:21:10;12.60;99.90
39099;DHT22;24844;52.380;7.018;2022-10-16T00:23:37;12.50;99.90
39099;DHT22;24844;52.380;7.018;2022-10-16T00:26:08;12.40;99.90
39099;DHT22;24844;52.380;7.018;2022-10-16T00:28:35;12.40;99.90
39099;DHT22;24844;52.380;7.018;2022-10-16T00:31:10;12.40;99.90
39099;DHT22;24844;52.380;7.018;2022-10-16T00:33:37;12.40;99.90
39099;DHT22;24844;52.380;7.018;2022-10-16T00:36:04;12.40;99.90
39099;DHT22;24844;52.380;7.018;2022-10-16T00:38:31;12.30;99.90
39099;DHT22;24844;52.380;7.018;2022-10-16T00:40:57;12.40;99.90
39099;DHT22;24844;52.380;7.018;2022-10-16T00:46:20;12.20;99.90
39099;DHT22;24844;52.380;7.018;2022-10-16T00:49:09;12.40;99.90
39099;DHT22;24844;52.380;7.018;2022-10-16T00:51:46;12.30;99.90
39099;DHT22;24844;52.380;7.018;2022-10-16T00:54:20;12.20;99.90
39099;DHT22;24844;52.380;7.018;2022-10-16T00:56:47;12.10;99.90
39099;DHT22;24844;52.380;7.018;2022-10-16T00:59:34;12.20;99.90
39099;DHT22;24844;52.380;7.018;2022-10-16T01:02:01;12.20;99.90
39099;DHT22;24844;52.380;7.018;2022-10-16T01:04:30;12.20;99.90
39099;DHT22;24844;52.380;7.018;2022-10-16T01:09:36;12.30;99.90
39099;DHT22;24844;52.380;7.018;2022-10-16T01:14:54;12.30;99.90
39099;DHT22;24844;52.380;7.018;2022-10-16T01:17:28;12.20;99.90
39099;DHT22;24844;52.380;7.018;2022-10-16T01:20:26;12.40;99.90
39099;DHT22;24844;52.380;7.018;2022-10-16T01:23:20;12.30;99.90
39099;DHT22;24844;52.380;7.018;2022-10-16T01:28:21;12.30;99.90
39099;DHT22;24844;52.380;7.018;2022-10-16T01:30:52;12.40;99.90
39099;DHT22;24844;52.380;7.018;2022-10-16T01:33:22;12.40;99.90
39099;DHT22;24844;52.380;7.018;2022-10-16T01:35:55;12.30;99.90
39099;DHT22;24844;52.380;7.018;2022-10-16T01:38:38;12.30;99.90
39099;DHT22;24844;52.380;7.018;2022-10-16T01:41:13;12.20;99.90
39099;DHT22;24844;52.380;7.018;2022-10-16T01:43:43;12.20;99.90
39099;DHT22;24844;52.380;7.018;2022-10-16T01:46:13;12.20;99.90
39099;DHT22;24844;52.380;7.018;2022-10-16T01:48:41;12.20;99.90
39099;DHT22;24844;52.380;7.018;2022-10-16T01:51:09;12.20;99.90
39099;DHT22;24844;52.380;7.018;2022-10-16T01:53:37;12.20;99.90
39099;DHT22;24844;52.380;7.018;2022-10-16T01:56:06;12.20;99.90
39099;DHT22;24844;52.380;7.018;2022-10-16T01:58:35;12.20;99.90
39099;DHT22;24844;52.380;7.018;2022-10-16T02:01:04;12.20;99.90
39099;DHT22;24844;52.380;7.018;2022-10-16T02:03:33;12.10;99.90
39099;DHT22;24844;52.380;7.018;2022-10-16T02:05:59;12.10;99.90
39099;DHT22;24844;52.380;7.018;2022-10-16T02:08:27;12.20;99.90
39099;DHT22;24844;52.380;7.018;2022-10-16T02:10:57;12.10;99.90
39099;DHT22;24844;52.380;7.018;2022-10-16T02:13:33;12.20;99.90
39099;DHT22;24844;52.380;7.018;2022-10-16T02:15:59;12.20;99.90
39099;DHT22;24844;52.380;7.018;2022-10-16T02:18:26;12.20;99.90
39099;DHT22;24844;52.380;7.018;2022-10-16T02:21:39;12.20;99.90
39099;DHT22;24844;52.380;7.018;2022-10-16T02:23:50;12.20;99.90
39099;DHT22;24844;52.380;7.018;2022-10-16T02:26:23;12.30;99.90
39099;DHT22;24844;52.380;7.018;2022-10-16T02:28:55;12.20;99.90
39099;DHT22;24844;52.380;7.018;2022-10-16T02:31:28;12.20;99.90
39099;DHT22;24844;52.380;7.018;2022-10-16T02:33:58;12.20;99.90
39099;DHT22;24844;52.380;7.018;2022-10-16T02:36:26;12.30;99.90
39099;DHT22;24844;52.380;7.018;2022-10-16T02:38:52;12.40;99.90
39099;DHT22;24844;52.380;7.018;2022-10-16T02:41:20;12.50;99.90
39099;DHT22;24844;52.380;7.018;2022-10-16T02:43:46;12.40;99.90
39099;DHT22;24844;52.380;7.018;2022-10-16T02:46:11;12.30;99.90
39099;DHT22;24844;52.380;7.018;2022-10-16T02:48:37;12.30;99.90
39099;DHT22;24844;52.380;7.018;2022-10-16T02:51:03;12.30;99.90
39099;DHT22;24844;52.380;7.018;2022-10-16T02:53:28;12.30;99.90
39099;DHT22;24844;52.380;7.018;2022-10-16T02:55:54;12.30;99.90
39099;DHT22;24844;52.380;7.018;2022-10-16T02:58:19;12.30;99.90
39099;DHT22;24844;52.380;7.018;2022-10-16T03:00:45;12.40;99.90
39099;DHT22;24844;52.380;7.018;2022-10-16T03:03:11;12.50;99.90
39099;DHT22;24844;52.380;7.018;2022-10-16T03:05:36;12.50;99.90
39099;DHT22;24844;52.380;7.018;2022-10-16T03:08:02;12.60;99.90
39099;DHT22;24844;52.380;7.018;2022-10-16T03:10:28;12.60;99.90
39099;DHT22;24844;52.380;7.018;2022-10-16T03:12:53;12.70;99.90
39099;DHT22;24844;52.380;7.018;2022-10-16T03:15:19;12.70;99.90
39099;DHT22;24844;52.380;7.018;2022-10-16T03:17:44;12.70;99.90
39099;DHT22;24844;52.380;7.018;2022-10-16T03:20:10;12.70;99.90
39099;DHT22;24844;52.380;7.018;2022-10-16T03:22:36;12.80;99.90
39099;DHT22;24844;52.380;7.018;2022-10-16T03:25:02;13.00;99.90
39099;DHT22;24844;52.380;7.018;2022-10-16T03:27:27;13.10;99.90
39099;DHT22;24844;52.380;7.018;2022-10-16T03:29:53;13.00;99.90
39099;DHT22;24844;52.380;7.018;2022-10-16T03:32:18;13.00;99.90
39099;DHT22;24844;52.380;7.018;2022-10-16T03:34:45;13.30;99.90
39099;DHT22;24844;52.380;7.018;2022-10-16T03:37:11;13.30;99.90
39099;DHT22;24844;52.380;7.018;2022-10-16T03:39:36;13.50;99.90
39099;DHT22;24844;52.380;7.018;2022-10-16T03:42:02;13.50;99.90
39099;DHT22;24844;52.380;7.018;2022-10-16T03:44:28;13.70;99.90
39099;DHT22;24844;52.380;7.018;2022-10-16T03:46:53;13.70;99.90
39099;DHT22;24844;52.380;7.018;2022-10-16T03:49:19;13.60;99.90
39099;DHT22;24844;52.380;7.018;2022-10-16T03:51:44;13.70;99.90
39099;DHT22;24844;52.380;7.018;2022-10-16T03:54:10;13.60;99.90
39099;DHT22;24844;52.380;7.018;2022-10-16T03:56:36;13.40;99.90
39099;DHT22;24844;52.380;7.018;2022-10-16T03:59:01;13.50;99.90
39099;DHT22;24844;52.380;7.018;2022-10-16T04:01:27;13.50;99.90
39099;DHT22;24844;52.380;7.018;2022-10-16T04:03:52;13.70;99.90
39099;DHT22;24844;52.380;7.018;2022-10-16T04:06:18;13.40;99.90
39099;DHT22;24844;52.380;7.018;2022-10-16T04:08:44;13.50;99.90
39099;DHT22;24844;52.380;7.018;2022-10-16T04:11:09;13.40;99.90
39099;DHT22;24844;52.380;7.018;2022-10-16T04:13:35;13.60;99.90
39099;DHT22;24844;52.380;7.018;2022-10-16T04:16:01;13.60;99.90
39099;DHT22;24844;52.380;7.018;2022-10-16T04:18:26;13.50;99.90
39099;DHT22;24844;52.380;7.018;2022-10-16T04:20:55;13.40;99.90
39099;DHT22;24844;52.380;7.018;2022-10-16T04:23:20;13.50;99.90
39099;DHT22;24844;52.380;7.018;2022-10-16T04:25:46;13.50;99.90
39099;DHT22;24844;52.380;7.018;2022-10-16T04:28:11;13.70;99.90
39099;DHT22;24844;52.380;7.018;2022-10-16T04:30:40;13.70;99.90
39099;DHT22;24844;52.380;7.018;2022-10-16T04:33:07;13.70;99.90
39099;DHT22;24844;52.380;7.018;2022-10-16T04:35:33;13.70;99.90
39099;DHT22;24844;52.380;7.018;2022-10-16T04:37:59;13.70;99.90
39099;DHT22;24844;52.380;7.018;2022-10-16T04:40:24;13.70;99.90
39099;DHT22;24844;52.380;7.018;2022-10-16T04:42:50;13.90;99.90
39099;DHT22;24844;52.380;7.018;2022-10-16T04:45:15;13.80;99.90
39099;DHT22;24844;52.380;7.018;2022-10-16T04:47:41;13.90;99.90
39099;DHT22;24844;52.380;7.018;2022-10-16T04:50:07;13.80;99.90
39099;DHT22;24844;52.380;7.018;2022-10-16T04:52:32;13.90;99.90
39099;DHT22;24844;52.380;7.018;2022-10-16T04:54:58;13.90;99.90
39099;DHT22;24844;52.380;7.018;2022-10-16T04:57:27;13.70;99.90
39099;DHT22;24844;52.380;7.018;2022-10-16T04:59:53;13.60;99.90
39099;DHT22;24844;52.380;7.018;2022-10-16T05:02:18;13.70;99.90
39099;DHT22;24844;52.380;7.018;2022-10-16T05:04:44;13.60;99.90
39099;DHT22;24844;52.380;7.018;2022-10-16T05:07:10;13.90;99.90
39099;DHT22;24844;52.380;7.018;2022-10-16T05:09:35;13.70;99.90
39099;DHT22;24844;52.380;7.018;2022-10-16T05:12:01;13.70;99.90
39099;DHT22;24844;52.380;7.018;2022-10-16T05:14:26;13.50;99.90
39099;DHT22;24844;52.380;7.018;2022-10-16T05:16:52;13.50;99.90
39099;DHT22;24844;52.380;7.018;2022-10-16T05:19:18;13.80;99.90
39099;DHT22;24844;52.380;7.018;2022-10-16T05:21:43;13.70;99.90
39099;DHT22;24844;52.380;7.018;2022-10-16T05:24:09;13.60;99.90
39099;DHT22;24844;52.380;7.018;2022-10-16T05:26:35;13.70;99.90
39099;DHT22;24844;52.380;7.018;2022-10-16T05:29:00;13.70;99.90
39099;DHT22;24844;52.380;7.018;2022-10-16T05:31:26;13.70;99.90
39099;DHT22;24844;52.380;7.018;2022-10-16T05:33:51;13.80;99.90
39099;DHT22;24844;52.380;7.018;2022-10-16T05:36:17;13.80;99.90
39099;DHT22;24844;52.380;7.018;2022-10-16T05:38:43;13.90;99.90
39099;DHT22;24844;52.380;7.018;2022-10-16T05:41:09;13.80;99.90
39099;DHT22;24844;52.380;7.018;2022-10-16T05:43:35;14.00;99.90
39099;DHT22;24844;52.380;7.018;2022-10-16T05:46:03;14.20;99.90
39099;DHT22;24844;52.380;7.018;2022-10-16T05:48:30;14.00;99.90
39099;DHT22;24844;52.380;7.018;2022-10-16T05:51:04;13.90;99.90
39099;DHT22;24844;52.380;7.018;2022-10-16T05:53:31;13.80;99.90
39099;DHT22;24844;52.380;7.018;2022-10-16T05:55:58;13.80;99.90
39099;DHT22;24844;52.380;7.018;2022-10-16T05:58:24;13.70;99.90
39099;DHT22;24844;52.380;7.018;2022-10-16T06:03:28;13.70;99.90
39099;DHT22;24844;52.380;7.018;2022-10-16T06:05:54;13.70;99.90
39099;DHT22;24844;52.380;7.018;2022-10-16T06:08:21;13.80;99.90
39099;DHT22;24844;52.380;7.018;2022-10-16T06:10:48;13.70;99.90
39099;DHT22;24844;52.380;7.018;2022-10-16T06:13:14;13.80;99.90
39099;DHT22;24844;52.380;7.018;2022-10-16T06:15:41;13.80;99.90
39099;DHT22;24844;52.380;7.018;2022-10-16T06:18:08;13.90;99.90
39099;DHT22;24844;52.380;7.018;2022-10-16T06:20:34;13.80;99.90
39099;DHT22;24844;52.380;7.018;2022-10-16T06:22:59;13.70;99.90
39099;DHT22;24844;52.380;7.018;2022-10-16T06:25:25;13.70;99.90
39099;DHT22;24844;52.380;7.018;2022-10-16T06:27:51;13.80;99.90
39099;DHT22;24844;52.380;7.018;2022-10-16T06:30:16;13.80;99.90
39099;DHT22;24844;52.380;7.018;2022-10-16T06:32:42;13.70;99.90
39099;DHT22;24844;52.380;7.018;2022-10-16T06:35:07;13.70;99.90
39099;DHT22;24844;52.380;7.018;2022-10-16T06:37:33;13.80;99.90
39099;DHT22;24844;52.380;7.018;2022-10-16T06:39:59;13.70;99.90
39099;DHT22;24844;52.380;7.018;2022-10-16T06:42:25;13.60;99.90
39099;DHT22;24844;52.380;7.018;2022-10-16T06:44:51;13.60;99.90
39099;DHT22;24844;52.380;7.018;2022-10-16T06:47:16;13.70;99.90
39099;DHT22;24844;52.380;7.018;2022-10-16T06:49:42;13.80;99.90
39099;DHT22;24844;52.380;7.018;2022-10-16T06:52:08;14.10;99.90
39099;DHT22;24844;52.380;7.018;2022-10-16T06:54:33;14.10;99.90
39099;DHT22;24844;52.380;7.018;2022-10-16T06:56:59;14.20;99.90
39099;DHT22;24844;52.380;7.018;2022-10-16T06:59:25;14.00;99.90
39099;DHT22;24844;52.380;7.018;2022-10-16T07:01:50;13.90;99.90
39099;DHT22;24844;52.380;7.018;2022-10-16T07:04:16;13.90;99.90
39099;DHT22;24844;52.380;7.018;2022-10-16T07:06:42;14.10;99.90
39099;DHT22;24844;52.380;7.018;2022-10-16T07:09:09;14.40;99.90
39099;DHT22;24844;52.380;7.018;2022-10-16T07:11:37;14.40;99.90
39099;DHT22;24844;52.380;7.018;2022-10-16T07:14:04;14.60;99.90
39099;DHT22;24844;52.380;7.018;2022-10-16T07:16:31;14.60;99.90
39099;DHT22;24844;52.380;7.018;2022-10-16T07:18:58;14.80;99.90
39099;DHT22;24844;52.380;7.018;2022-10-16T07:21:26;15.10;99.90
39099;DHT22;24844;52.380;7.018;2022-10-16T07:23:54;15.40;99.90
39099;DHT22;24844;52.380;7.018;2022-10-16T07:26:20;15.20;99.90
39099;DHT22;24844;52.380;7.018;2022-10-16T07:28:46;15.30;99.90
39099;DHT22;24844;52.380;7.018;2022-10-16T07:31:13;15.50;99.90
39099;DHT22;24844;52.380;7.018;2022-10-16T07:33:41;15.60;99.90
39099;DHT22;24844;52.380;7.018;2022-10-16T07:36:10;15.50;99.90
39099;DHT22;24844;52.380;7.018;2022-10-16T07:38:35;15.70;99.90
39099;DHT22;24844;52.380;7.018;2022-10-16T07:41:03;15.70;99.90
39099;DHT22;24844;52.380;7.018;2022-10-16T07:43:29;15.80;99.90
39099;DHT22;24844;52.380;7.018;2022-10-16T07:45:55;16.10;99.90
39099;DHT22;24844;52.380;7.018;2022-10-16T07:48:22;16.00;99.90
39099;DHT22;24844;52.380;7.018;2022-10-16T07:50:48;16.10;99.90
39099;DHT22;24844;52.380;7.018;2022-10-16T07:53:14;16.00;99.90
39099;DHT22;24844;52.380;7.018;2022-10-16T07:55:40;15.90;99.90
39099;DHT22;24844;52.380;7.018;2022-10-16T07:58:06;15.80;99.90
39099;DHT22;24844;52.380;7.018;2022-10-16T08:00:32;16.10;99.90
39099;DHT22;24844;52.380;7.018;2022-10-16T08:02:58;15.90;99.90
39099;DHT22;24844;52.380;7.018;2022-10-16T08:05:27;16.00;99.90
39099;DHT22;24844;52.380;7.018;2022-10-16T08:07:53;16.30;99.90
39099;DHT22;24844;52.380;7.018;2022-10-16T08:10:21;16.50;99.90
39099;DHT22;24844;52.380;7.018;2022-10-16T08:12:47;16.50;99.90
39099;DHT22;24844;52.380;7.018;2022-10-16T08:15:12;17.00;99.90
39099;DHT22;24844;52.380;7.018;2022-10-16T08:17:38;17.80;99.90
39099;DHT22;24844;52.380;7.018;2022-10-16T08:20:04;18.20;99.90
39099;DHT22;24844;52.380;7.018;2022-10-16T08:22:30;18.30;99.90
39099;DHT22;24844;52.380;7.018;2022-10-16T08:24:55;18.40;99.90
39099;DHT22;24844;52.380;7.018;2022-10-16T08:27:21;18.50;99.90
39099;DHT22;24844;52.380;7.018;2022-10-16T08:29:48;18.40;99.90
39099;DHT22;24844;52.380;7.018;2022-10-16T08:32:14;18.50;99.90
39099;DHT22;24844;52.380;7.018;2022-10-16T08:34:39;18.50;99.90
39099;DHT22;24844;52.380;7.018;2022-10-16T08:37:05;18.00;99.90
39099;DHT22;24844;52.380;7.018;2022-10-16T08:39:32;18.10;99.90
39099;DHT22;24844;52.380;7.018;2022-10-16T08:42:11;18.40;99.90
39099;DHT22;24844;52.380;7.018;2022-10-16T08:47:45;18.90;99.90
39099;DHT22;24844;52.380;7.018;2022-10-16T08:50:21;18.70;99.90
39099;DHT22;24844;52.380;7.018;2022-10-16T08:52:47;19.00;99.90
39099;DHT22;24844;52.380;7.018;2022-10-16T08:55:41;19.40;99.90
39099;DHT22;24844;52.380;7.018;2022-10-16T08:58:18;19.30;99.90
39099;DHT22;24844;52.380;7.018;2022-10-16T09:00:50;19.20;99.90
39099;DHT22;24844;52.380;7.018;2022-10-16T09:03:23;18.70;99.90
39099;DHT22;24844;52.380;7.018;2022-10-16T09:09:09;18.60;99.90
39099;DHT22;24844;52.380;7.018;2022-10-16T09:19:58;19.10;99.90
39099;DHT22;24844;52.380;7.018;2022-10-16T09:22:27;19.50;99.90
39099;DHT22;24844;52.380;7.018;2022-10-16T09:24:56;19.80;99.90
39099;DHT22;24844;52.380;7.018;2022-10-16T09:27:24;19.70;99.90
39099;DHT22;24844;52.380;7.018;2022-10-16T09:29:55;20.10;99.90
39099;DHT22;24844;52.380;7.018;2022-10-16T09:32:22;20.30;99.90
39099;DHT22;24844;52.380;7.018;2022-10-16T09:34:53;20.50;99.90
39099;DHT22;24844;52.380;7.018;2022-10-16T09:37:22;20.50;99.90
39099;DHT22;24844;52.380;7.018;2022-10-16T09:39:53;20.80;99.90
39099;DHT22;24844;52.380;7.018;2022-10-16T09:42:27;20.90;99.90
39099;DHT22;24844;52.380;7.018;2022-10-16T09:44:53;21.10;99.90
39099;DHT22;24844;52.380;7.018;2022-10-16T09:47:29;20.50;99.90
39099;DHT22;24844;52.380;7.018;2022-10-16T09:49:57;20.50;99.90
39099;DHT22;24844;52.380;7.018;2022-10-16T09:52:25;20.40;99.90
39099;DHT22;24844;52.380;7.018;2022-10-16T09:54:51;20.70;99.90
39099;DHT22;24844;52.380;7.018;2022-10-16T09:57:17;20.30;99.90
39099;DHT22;24844;52.380;7.018;2022-10-16T09:59:51;20.40;99.90
39099;DHT22;24844;52.380;7.018;2022-10-16T10:02:29;20.60;99.90
39099;DHT22;24844;52.380;7.018;2022-10-16T10:04:55;20.20;99.90
39099;DHT22;24844;52.380;7.018;2022-10-16T10:07:27;20.60;99.90
39099;DHT22;24844;52.380;7.018;2022-10-16T10:09:54;20.50;99.90
39099;DHT22;24844;52.380;7.018;2022-10-16T10:12:24;20.30;99.90
39099;DHT22;24844;52.380;7.018;2022-10-16T10:14:51;20.80;99.90
39099;DHT22;24844;52.380;7.018;2022-10-16T10:17:24;21.10;99.90
39099;DHT22;24844;52.380;7.018;2022-10-16T10:19:55;21.00;99.90
39099;DHT22;24844;52.380;7.018;2022-10-16T10:22:39;21.00;99.90
39099;DHT22;24844;52.380;7.018;2022-10-16T10:30:29;22.90;99.90
39099;DHT22;24844;52.380;7.018;2022-10-16T10:38:49;24.20;99.90
39099;DHT22;24844;52.380;7.018;2022-10-16T10:44:05;24.90;99.90
39099;DHT22;24844;52.380;7.018;2022-10-16T10:46:44;25.60;99.90
39099;DHT22;24844;52.380;7.018;2022-10-16T10:57:47;26.70;99.90
39099;DHT22;24844;52.380;7.018;2022-10-16T11:00:55;26.70;99.90
39099;DHT22;24844;52.380;7.018;2022-10-16T11:06:35;27.00;99.90
39099;DHT22;24844;52.380;7.018;2022-10-16T11:09:18;27.60;99.70
39099;DHT22;24844;52.380;7.018;2022-10-16T11:11:58;26.00;99.90
39099;DHT22;24844;52.380;7.018;2022-10-16T11:14:35;25.60;99.90
39099;DHT22;24844;52.380;7.018;2022-10-16T11:17:30;23.80;99.90
39099;DHT22;24844;52.380;7.018;2022-10-16T11:20:22;23.10;99.90
39099;DHT22;24844;52.380;7.018;2022-10-16T11:23:13;22.50;99.90
39099;DHT22;24844;52.380;7.018;2022-10-16T11:25:35;21.80;99.90
39099;DHT22;24844;52.380;7.018;2022-10-16T11:28:20;21.30;99.90
39099;DHT22;24844;52.380;7.018;2022-10-16T11:33:22;20.30;99.90
39099;DHT22;24844;52.380;7.018;2022-10-16T11:36:16;20.30;99.90
39099;DHT22;24844;52.380;7.018;2022-10-16T11:46:40;20.70;99.90
39099;DHT22;24844;52.380;7.018;2022-10-16T11:49:18;20.60;99.90
39099;DHT22;24844;52.380;7.018;2022-10-16T11:52:13;20.50;99.90
39099;DHT22;24844;52.380;7.018;2022-10-16T11:55:23;20.10;99.90
39099;DHT22;24844;52.380;7.018;2022-10-16T11:58:09;20.20;99.90
39099;DHT22;24844;52.380;7.018;2022-10-16T12:00:55;19.90;99.90
39099;DHT22;24844;52.380;7.018;2022-10-16T12:03:59;19.60;99.90
39099;DHT22;24844;52.380;7.018;2022-10-16T12:06:40;19.40;99.90
39099;DHT22;24844;52.380;7.018;2022-10-16T12:09:15;19.60;99.90
39099;DHT22;24844;52.380;7.018;2022-10-16T12:11:42;19.60;99.90
39099;DHT22;24844;52.380;7.018;2022-10-16T12:14:20;19.40;99.90
39099;DHT22;24844;52.380;7.018;2022-10-16T12:17:00;19.40;99.90
39099;DHT22;24844;52.380;7.018;2022-10-16T12:19:28;19.50;99.90
39099;DHT22;24844;52.380;7.018;2022-10-16T12:21:57;19.50;99.90
39099;DHT22;24844;52.380;7.018;2022-10-16T12:24:38;19.60;99.90
39099;DHT22;24844;52.380;7.018;2022-10-16T12:27:28;19.60;99.90
39099;DHT22;24844;52.380;7.018;2022-10-16T12:30:00;19.40;99.90
39099;DHT22;24844;52.380;7.018;2022-10-16T12:32:30;19.50;99.90
39099;DHT22;24844;52.380;7.018;2022-10-16T12:34:57;19.60;99.90
39099;DHT22;24844;52.380;7.018;2022-10-16T12:37:29;19.50;99.90
39099;DHT22;24844;52.380;7.018;2022-10-16T12:39:56;19.60;99.90
39099;DHT22;24844;52.380;7.018;2022-10-16T12:44:52;19.70;99.90
39099;DHT22;24844;52.380;7.018;2022-10-16T12:47:22;20.10;99.90
39099;DHT22;24844;52.380;7.018;2022-10-16T12:49:52;20.00;99.90
39099;DHT22;24844;52.380;7.018;2022-10-16T12:54:52;19.90;99.90
39099;DHT22;24844;52.380;7.018;2022-10-16T13:00:04;19.80;99.90
39099;DHT22;24844;52.380;7.018;2022-10-16T13:03:02;19.70;99.90
39099;DHT22;24844;52.380;7.018;2022-10-16T13:05:57;19.50;99.90
39099;DHT22;24844;52.380;7.018;2022-10-16T13:11:43;19.60;99.90
39099;DHT22;24844;52.380;7.018;2022-10-16T13:14:45;19.50;99.90
39099;DHT22;24844;52.380;7.018;2022-10-16T13:20:12;19.70;99.90
39099;DHT22;24844;52.380;7.018;2022-10-16T13:22:46;19.90;99.90
39099;DHT22;24844;52.380;7.018;2022-10-16T13:25:34;20.00;99.90
39099;DHT22;24844;52.380;7.018;2022-10-16T13:28:07;20.00;99.90
39099;DHT22;24844;52.380;7.018;2022-10-16T13:30:54;20.00;99.90
39099;DHT22;24844;52.380;7.018;2022-10-16T13:33:27;20.00;99.90
39099;DHT22;24844;52.380;7.018;2022-10-16T13:35:56;20.00;99.90
39099;DHT22;24844;52.380;7.018;2022-10-16T13:38:33;19.90;99.90
39099;DHT22;24844;52.380;7.018;2022-10-16T13:41:13;19.80;99.90
39099;DHT22;24844;52.380;7.018;2022-10-16T13:43:48;19.80;99.90
39099;DHT22;24844;52.380;7.018;2022-10-16T13:46:22;19.80;99.90
39099;DHT22;24844;52.380;7.018;2022-10-16T13:48:59;19.70;99.90
39099;DHT22;24844;52.380;7.018;2022-10-16T13:51:27;19.50;99.90
39099;DHT22;24844;52.380;7.018;2022-10-16T13:53:54;19.50;99.90
39099;DHT22;24844;52.380;7.018;2022-10-16T13:56:21;19.10;99.90
39099;DHT22;24844;52.380;7.018;2022-10-16T13:59:06;19.30;99.90
39099;DHT22;24844;52.380;7.018;2022-10-16T14:01:40;19.50;99.90
39099;DHT22;24844;52.380;7.018;2022-10-16T14:04:09;19.10;99.90
39099;DHT22;24844;52.380;7.018;2022-10-16T14:06:36;19.10;99.90
39099;DHT22;24844;52.380;7.018;2022-10-16T14:09:13;19.40;99.90
39099;DHT22;24844;52.380;7.018;2022-10-16T14:11:48;19.20;99.90
39099;DHT22;24844;52.380;7.018;2022-10-16T14:14:14;19.40;99.90
39099;DHT22;24844;52.380;7.018;2022-10-16T14:16:42;19.20;99.90
39099;DHT22;24844;52.380;7.018;2022-10-16T14:19:26;19.20;99.90
39099;DHT22;24844;52.380;7.018;2022-10-16T14:21:53;19.20;99.90
39099;DHT22;24844;52.380;7.018;2022-10-16T14:24:33;19.30;99.90
39099;DHT22;24844;52.380;7.018;2022-10-16T14:26:59;19.40;99.90
39099;DHT22;24844;52.380;7.018;2022-10-16T14:29:27;19.30;99.90
39099;DHT22;24844;52.380;7.018;2022-10-16T14:32:01;19.20;99.90
39099;DHT22;24844;52.380;7.018;2022-10-16T14:34:36;19.00;99.90
39099;DHT22;24844;52.380;7.018;2022-10-16T14:37:24;19.20;99.90
39099;DHT22;24844;52.380;7.018;2022-10-16T14:39:50;19.20;99.90
39099;DHT22;24844;52.380;7.018;2022-10-16T14:42:18;19.10;99.90
39099;DHT22;24844;52.380;7.018;2022-10-16T14:44:45;19.20;99.90
39099;DHT22;24844;52.380;7.018;2022-10-16T14:47:16;19.10;99.90
39099;DHT22;24844;52.380;7.018;2022-10-16T14:49:47;19.10;99.90
39099;DHT22;24844;52.380;7.018;2022-10-16T14:52:13;18.70;99.90
39099;DHT22;24844;52.380;7.018;2022-10-16T14:54:40;18.70;99.90
39099;DHT22;24844;52.380;7.018;2022-10-16T14:57:19;18.90;99.90
39099;DHT22;24844;52.380;7.018;2022-10-16T14:59:46;18.90;99.90
39099;DHT22;24844;52.380;7.018;2022-10-16T15:02:34;19.00;99.90
39099;DHT22;24844;52.380;7.018;2022-10-16T15:05:20;19.00;99.90
39099;DHT22;24844;52.380;7.018;2022-10-16T15:07:48;19.00;99.90
39099;DHT22;24844;52.380;7.018;2022-10-16T15:10:15;18.90;99.90
39099;DHT22;24844;52.380;7.018;2022-10-16T15:12:41;18.90;99.90
39099;DHT22;24844;52.380;7.018;2022-10-16T15:17:55;19.00;99.90
39099;DHT22;24844;52.380;7.018;2022-10-16T15:20:24;18.90;99.90
39099;DHT22;24844;52.380;7.018;2022-10-16T15:22:50;18.80;99.90
39099;DHT22;24844;52.380;7.018;2022-10-16T15:25:35;18.70;99.90
39099;DHT22;24844;52.380;7.018;2022-10-16T15:28:03;18.70;99.90
39099;DHT22;24844;52.380;7.018;2022-10-16T15:30:29;18.70;99.90
39099;DHT22;24844;52.380;7.018;2022-10-16T15:32:55;18.70;99.90
39099;DHT22;24844;52.380;7.018;2022-10-16T15:35:21;18.50;99.90
39099;DHT22;24844;52.380;7.018;2022-10-16T15:37:47;18.50;99.90
39099;DHT22;24844;52.380;7.018;2022-10-16T15:40:14;18.40;99.90
39099;DHT22;24844;52.380;7.018;2022-10-16T15:42:40;18.40;99.90
39099;DHT22;24844;52.380;7.018;2022-10-16T15:45:07;18.50;99.90
39099;DHT22;24844;52.380;7.018;2022-10-16T15:47:33;18.50;99.90
39099;DHT22;24844;52.380;7.018;2022-10-16T15:49:59;18.40;99.90
39099;DHT22;24844;52.380;7.018;2022-10-16T15:52:25;18.20;99.90
39099;DHT22;24844;52.380;7.018;2022-10-16T15:54:50;18.10;99.90
39099;DHT22;24844;52.380;7.018;2022-10-16T15:57:16;18.10;99.90
39099;DHT22;24844;52.380;7.018;2022-10-16T15:59:41;17.90;99.90
39099;DHT22;24844;52.380;7.018;2022-10-16T16:02:09;18.00;99.90
39099;DHT22;24844;52.380;7.018;2022-10-16T16:04:34;18.10;99.90
39099;DHT22;24844;52.380;7.018;2022-10-16T16:07:00;18.10;99.90
39099;DHT22;24844;52.380;7.018;2022-10-16T16:09:28;18.30;99.90
39099;DHT22;24844;52.380;7.018;2022-10-16T16:11:54;18.40;99.90
39099;DHT22;24844;52.380;7.018;2022-10-16T16:14:19;18.50;99.90
39099;DHT22;24844;52.380;7.018;2022-10-16T16:16:45;18.50;99.90
39099;DHT22;24844;52.380;7.018;2022-10-16T16:19:10;18.60;99.90
39099;DHT22;24844;52.380;7.018;2022-10-16T16:21:36;18.60;99.90
39099;DHT22;24844;52.380;7.018;2022-10-16T16:24:02;18.60;99.90
39099;DHT22;24844;52.380;7.018;2022-10-16T16:26:34;18.60;99.90
39099;DHT22;24844;52.380;7.018;2022-10-16T16:29:03;18.40;99.90
39099;DHT22;24844;52.380;7.018;2022-10-16T16:31:31;18.40;99.90
39099;DHT22;24844;52.380;7.018;2022-10-16T16:33:57;18.40;99.90
39099;DHT22;24844;52.380;7.018;2022-10-16T16:36:24;18.30;99.90
39099;DHT22;24844;52.380;7.018;2022-10-16T16:38:50;18.10;99.90
39099;DHT22;24844;52.380;7.018;2022-10-16T16:41:26;17.90;99.90
39099;DHT22;24844;52.380;7.018;2022-10-16T16:43:53;17.60;99.90
39099;DHT22;24844;52.380;7.018;2022-10-16T16:46:20;17.50;99.90
39099;DHT22;24844;52.380;7.018;2022-10-16T16:48:46;17.30;99.90
39099;DHT22;24844;52.380;7.018;2022-10-16T16:51:14;17.10;99.90
39099;DHT22;24844;52.380;7.018;2022-10-16T16:53:47;16.80;99.90
39099;DHT22;24844;52.380;7.018;2022-10-16T16:56:13;16.70;99.90
39099;DHT22;24844;52.380;7.018;2022-10-16T16:58:39;16.50;99.90
39099;DHT22;24844;52.380;7.018;2022-10-16T17:01:05;16.40;99.90
39099;DHT22;24844;52.380;7.018;2022-10-16T17:03:33;16.20;99.90
39099;DHT22;24844;52.380;7.018;2022-10-16T17:06:01;16.20;99.90
39099;DHT22;24844;52.380;7.018;2022-10-16T17:08:27;16.00;99.90